createdAt,value
2018-06-18T00:02:06.817Z,99.90
2018-06-18T00:04:34.946Z,99.90
2018-06-18T00:07:03.308Z,99.90
2018-06-18T00:09:31.311Z,99.90
2018-06-18T00:14:27.360Z,99.90
2018-06-18T00:19:23.279Z,99.90
2018-06-18T00:21:51.517Z,99.90
2018-06-18T00:24:19.583Z,99.90
2018-06-18T00:26:47.767Z,99.90
2018-06-18T00:29:15.831Z,99.90
2018-06-18T00:31:43.874Z,99.90
2018-06-18T00:34:12.001Z,99.90
2018-06-18T00:36:40.055Z,99.90
2018-06-18T00:39:08.573Z,99.90
2018-06-18T00:41:36.598Z,99.90
2018-06-18T00:44:04.655Z,99.90
2018-06-18T00:46:32.864Z,99.90
2018-06-18T00:49:00.919Z,99.90
2018-06-18T00:51:28.967Z,99.90
2018-06-18T00:56:25.124Z,99.90
2018-06-18T01:01:21.224Z,99.90
2018-06-18T01:03:49.473Z,99.90
2018-06-18T01:06:17.530Z,99.90
2018-06-18T01:08:45.696Z,99.90
2018-06-18T01:11:13.995Z,99.90
2018-06-18T01:13:42.031Z,99.90
2018-06-18T01:18:37.977Z,99.90
2018-06-18T01:23:38.100Z,99.90
2018-06-18T01:26:06.123Z,99.90
2018-06-18T01:28:34.288Z,99.90
2018-06-18T01:31:02.351Z,99.90
2018-06-18T01:33:30.531Z,99.90
2018-06-18T01:35:58.623Z,99.90
2018-06-18T01:38:26.764Z,99.90
2018-06-18T01:40:54.972Z,99.90
2018-06-18T01:43:23.040Z,99.90
2018-06-18T01:45:51.078Z,99.90
2018-06-18T01:50:47.157Z,99.90
2018-06-18T01:53:15.216Z,99.90
2018-06-18T01:55:43.513Z,99.90
2018-06-18T01:58:11.667Z,99.90
2018-06-18T02:00:39.964Z,99.90
2018-06-18T02:03:08.012Z,99.90
2018-06-18T02:05:36.057Z,99.90
2018-06-18T02:08:04.293Z,99.90
2018-06-18T02:10:32.765Z,99.90
2018-06-18T02:13:00.738Z,99.90
2018-06-18T02:15:28.820Z,99.90
2018-06-18T02:17:56.868Z,99.90
2018-06-18T02:20:24.939Z,99.90
2018-06-18T02:22:53.215Z,99.90
2018-06-18T02:25:21.579Z,99.90
2018-06-18T02:30:28.616Z,99.90
2018-06-18T02:33:02.211Z,99.90
2018-06-18T02:35:35.810Z,99.90
2018-06-18T02:38:09.336Z,99.90
2018-06-18T02:40:42.680Z,99.90
2018-06-18T02:45:38.600Z,99.90
2018-06-18T02:48:06.729Z,99.90
2018-06-18T02:50:34.800Z,99.90
2018-06-18T02:53:03.167Z,99.90
2018-06-18T02:55:31.243Z,99.90
2018-06-18T02:57:59.512Z,99.90
2018-06-18T03:00:27.801Z,99.90
2018-06-18T03:02:55.883Z,99.90
2018-06-18T03:05:23.993Z,99.90
2018-06-18T03:07:52.596Z,99.90
2018-06-18T03:10:20.614Z,99.90
2018-06-18T03:12:48.728Z,99.90
2018-06-18T03:15:16.734Z,99.90
2018-06-18T03:20:18.066Z,99.90
2018-06-18T03:22:51.792Z,99.90
2018-06-18T03:25:25.253Z,99.90
2018-06-18T03:27:58.903Z,99.90
2018-06-18T03:30:26.912Z,99.90
2018-06-18T03:32:55.076Z,99.90
2018-06-18T03:35:23.171Z,99.90
2018-06-18T03:37:51.932Z,99.90
2018-06-18T03:40:20.127Z,99.90
2018-06-18T03:42:48.174Z,99.90
2018-06-18T03:47:48.743Z,99.90
2018-06-18T03:50:16.840Z,99.90
2018-06-18T03:52:45.275Z,99.90
2018-06-18T03:57:43.050Z,99.90
2018-06-18T04:03:03.421Z,99.90
2018-06-18T04:05:37.163Z,99.90
2018-06-18T04:08:12.335Z,99.90
2018-06-18T04:10:45.893Z,99.90
2018-06-18T04:13:14.227Z,99.90
2018-06-18T04:15:42.296Z,99.90
2018-06-18T04:18:10.448Z,99.90
2018-06-18T04:23:11.826Z,99.90
2018-06-18T04:25:40.015Z,99.90
2018-06-18T04:28:08.091Z,99.90
2018-06-18T04:30:36.140Z,99.90
2018-06-18T04:35:32.386Z,99.90
2018-06-18T04:40:28.223Z,99.90
2018-06-18T04:45:37.379Z,99.90
2018-06-18T04:50:44.396Z,99.90
2018-06-18T04:53:12.485Z,99.90
2018-06-18T04:55:40.539Z,99.90
2018-06-18T04:58:08.856Z,99.90
2018-06-18T05:01:13.732Z,99.90
2018-06-18T05:06:09.606Z,99.90
2018-06-18T05:08:52.843Z,99.90
2018-06-18T05:11:20.878Z,99.90
2018-06-18T05:16:16.738Z,99.90
2018-06-18T05:18:44.796Z,99.90
2018-06-18T05:23:40.643Z,99.90
2018-06-18T05:26:08.837Z,99.90
2018-06-18T05:28:36.904Z,99.90
2018-06-18T05:31:05.092Z,99.90
2018-06-18T05:33:33.193Z,99.90
2018-06-18T05:36:01.210Z,99.90
2018-06-18T05:38:33.859Z,99.90
2018-06-18T05:41:01.984Z,99.90
2018-06-18T05:43:30.726Z,99.90
2018-06-18T05:45:58.946Z,99.90
2018-06-18T05:48:26.998Z,99.90
2018-06-18T05:53:23.143Z,99.90
2018-06-18T05:58:19.120Z,99.90
2018-06-18T06:00:47.292Z,99.90
2018-06-18T06:03:15.363Z,99.90
2018-06-18T06:05:43.415Z,99.90
2018-06-18T06:08:11.505Z,99.90
2018-06-18T06:10:39.557Z,99.90
2018-06-18T06:15:36.543Z,99.90
2018-06-18T06:18:05.031Z,99.90
2018-06-18T06:20:33.092Z,99.90
2018-06-18T06:23:01.276Z,99.90
2018-06-18T06:25:29.324Z,99.90
2018-06-18T06:27:57.532Z,99.90
2018-06-18T06:30:25.615Z,99.90
2018-06-18T06:32:53.750Z,99.90
2018-06-18T06:37:52.152Z,99.90
2018-06-18T06:40:20.259Z,99.90
2018-06-18T06:42:48.315Z,99.90
2018-06-18T06:45:16.391Z,99.90
2018-06-18T06:47:44.443Z,99.90
2018-06-18T06:52:40.605Z,99.90
2018-06-18T06:55:08.683Z,99.90
2018-06-18T06:57:36.952Z,99.90
2018-06-18T07:00:05.035Z,99.90
2018-06-18T07:02:33.721Z,99.90
2018-06-18T07:05:02.001Z,99.90
2018-06-18T07:07:30.148Z,99.90
2018-06-18T07:12:26.019Z,99.90
2018-06-18T07:14:54.168Z,99.90
2018-06-18T07:19:50.232Z,99.90
2018-06-18T07:22:18.428Z,99.90
2018-06-18T07:24:46.664Z,99.90
2018-06-18T07:29:42.799Z,99.90
2018-06-18T07:34:38.688Z,99.90
2018-06-18T07:37:06.928Z,99.90
2018-06-18T07:42:02.772Z,99.90
2018-06-18T07:44:30.877Z,99.90
2018-06-18T07:46:59.020Z,99.90
2018-06-18T07:49:27.234Z,99.90
2018-06-18T07:51:55.292Z,99.90
2018-06-18T07:54:23.403Z,99.90
2018-06-18T07:56:51.402Z,99.90
2018-06-18T08:01:47.248Z,99.90
2018-06-18T08:06:43.085Z,99.90
2018-06-18T08:11:41.192Z,99.90
2018-06-18T08:14:09.256Z,99.90
2018-06-18T08:16:37.262Z,99.90
2018-06-18T08:19:05.623Z,99.90
2018-06-18T08:21:33.908Z,99.90
2018-06-18T08:24:02.062Z,99.90
2018-06-18T08:26:30.179Z,99.90
2018-06-18T08:28:58.216Z,99.90
2018-06-18T08:31:26.504Z,99.90
2018-06-18T08:33:54.761Z,99.90
2018-06-18T08:37:38.239Z,99.90
2018-06-18T08:40:06.468Z,99.90
2018-06-18T08:42:34.479Z,99.90
2018-06-18T08:45:02.523Z,99.90
2018-06-18T08:50:03.856Z,99.90
2018-06-18T08:52:37.287Z,99.90
2018-06-18T09:00:17.397Z,99.90
2018-06-18T09:02:51.091Z,99.90
2018-06-18T09:07:58.630Z,99.90
2018-06-18T09:10:26.785Z,99.90
2018-06-18T09:12:54.883Z,99.90
2018-06-18T09:15:22.972Z,99.90
2018-06-18T09:17:50.948Z,99.90
2018-06-18T09:20:18.988Z,99.90
2018-06-18T09:22:47.168Z,99.90
2018-06-18T09:25:15.243Z,99.90
2018-06-18T09:27:43.474Z,99.90
2018-06-18T09:30:11.798Z,99.90
2018-06-18T09:32:40.265Z,99.90
2018-06-18T09:35:08.262Z,99.90
2018-06-18T09:37:36.304Z,99.90
2018-06-18T09:42:32.595Z,99.90
2018-06-18T09:45:01.309Z,99.90
2018-06-18T09:47:29.553Z,99.90
2018-06-18T09:50:03.233Z,99.90
2018-06-18T09:52:36.663Z,99.90
2018-06-18T09:55:10.195Z,99.90
2018-06-18T09:57:43.979Z,99.90
2018-06-18T10:00:27.093Z,99.90
2018-06-18T10:02:55.852Z,99.90
2018-06-18T10:05:24.032Z,99.90
2018-06-18T10:07:52.092Z,99.90
2018-06-18T10:12:47.947Z,99.90
2018-06-18T10:15:16.153Z,99.90
2018-06-18T10:17:44.184Z,99.90
2018-06-18T10:20:12.293Z,99.90
2018-06-18T10:22:40.447Z,99.90
2018-06-18T10:25:08.498Z,99.90
2018-06-18T10:30:04.477Z,99.90
2018-06-18T10:33:39.035Z,99.90
2018-06-18T10:36:12.617Z,99.90
2018-06-18T10:38:46.102Z,99.90
2018-06-18T10:41:19.675Z,99.90
2018-06-18T10:46:15.750Z,99.90
2018-06-18T10:48:43.808Z,99.90
2018-06-18T10:51:11.893Z,98.80
2018-06-18T10:53:39.943Z,99.70
2018-06-18T10:58:35.781Z,99.30
2018-06-18T11:03:36.743Z,99.00
2018-06-18T11:08:38.108Z,98.70
2018-06-18T11:16:01.847Z,98.70
2018-06-18T11:18:35.305Z,99.70
2018-06-18T11:21:08.323Z,99.90
2018-06-18T11:23:41.242Z,99.70
2018-06-18T11:26:14.149Z,98.70
2018-06-18T11:28:41.577Z,99.70
2018-06-18T11:31:08.904Z,99.60
2018-06-18T11:33:36.270Z,98.70
2018-06-18T11:36:03.646Z,98.20
2018-06-18T11:38:30.985Z,99.40
2018-06-18T11:40:58.339Z,99.90
2018-06-18T11:43:25.729Z,99.90
2018-06-18T11:45:53.113Z,99.90
2018-06-18T11:48:21.414Z,99.90
2018-06-18T11:50:49.307Z,99.90
2018-06-18T11:53:17.246Z,99.90
2018-06-18T11:58:17.669Z,99.90
2018-06-18T12:03:24.882Z,99.90
2018-06-18T12:05:58.517Z,99.90
2018-06-18T12:08:31.980Z,99.80
2018-06-18T12:11:00.121Z,99.90
2018-06-18T12:13:28.179Z,99.90
2018-06-18T12:15:56.179Z,99.90
2018-06-18T12:18:24.324Z,99.50
2018-06-18T12:20:51.649Z,99.90
2018-06-18T12:25:47.583Z,98.00
2018-06-18T12:28:15.705Z,97.40
2018-06-18T12:30:43.756Z,97.50
2018-06-18T12:33:11.839Z,97.30
2018-06-18T12:35:40.101Z,96.60
2018-06-18T12:40:35.963Z,99.90
2018-06-18T12:43:04.206Z,98.90
2018-06-18T12:48:11.067Z,99.90
2018-06-18T12:50:44.520Z,97.60
2018-06-18T12:53:18.248Z,98.40
2018-06-18T12:55:51.679Z,99.90
2018-06-18T12:58:19.699Z,98.20
2018-06-18T13:00:48.054Z,99.90
2018-06-18T13:03:16.487Z,99.90
2018-06-18T13:05:44.547Z,99.90
2018-06-18T13:08:12.592Z,99.90
2018-06-18T13:13:07.205Z,99.90
2018-06-18T13:18:01.736Z,99.90
2018-06-18T13:20:29.081Z,99.90
2018-06-18T13:22:56.931Z,99.90
2018-06-18T13:27:57.001Z,99.90
2018-06-18T13:30:24.362Z,99.90
2018-06-18T13:32:52.034Z,99.90
2018-06-18T13:35:20.186Z,99.60
2018-06-18T13:37:53.920Z,97.90
2018-06-18T13:40:27.423Z,98.30
2018-06-18T13:43:00.822Z,99.90
2018-06-18T13:45:34.179Z,99.90
2018-06-18T13:48:07.968Z,99.90
2018-06-18T13:50:35.984Z,98.50
2018-06-18T13:53:04.147Z,99.90
2018-06-18T13:55:32.221Z,99.90
2018-06-18T13:58:00.396Z,99.90
2018-06-18T14:00:28.588Z,99.90
2018-06-18T14:02:56.759Z,99.90
2018-06-18T14:05:24.798Z,99.90
2018-06-18T14:10:20.668Z,98.00
2018-06-18T14:12:48.706Z,99.90
2018-06-18T14:17:44.657Z,99.90
2018-06-18T14:20:18.152Z,99.10
2018-06-18T14:25:14.293Z,99.90
2018-06-18T14:27:42.255Z,99.90
2018-06-18T14:30:15.079Z,99.70
2018-06-18T14:32:48.037Z,99.20
2018-06-18T14:35:20.989Z,99.70
2018-06-18T14:37:55.103Z,99.90
2018-06-18T14:40:22.728Z,99.90
2018-06-18T14:42:49.972Z,99.90
2018-06-18T14:45:17.437Z,99.90
2018-06-18T14:47:44.793Z,99.90
2018-06-18T14:50:12.219Z,99.90
2018-06-18T14:52:39.672Z,99.90
2018-06-18T14:55:07.658Z,98.80
2018-06-18T14:57:34.955Z,99.90
2018-06-18T15:00:06.187Z,99.90
2018-06-18T15:02:33.594Z,99.90
2018-06-18T15:05:00.896Z,99.90
2018-06-18T15:07:28.421Z,99.90
2018-06-18T15:09:55.811Z,99.90
2018-06-18T15:12:24.094Z,99.90
2018-06-18T15:14:57.050Z,99.80
2018-06-18T15:17:24.745Z,99.80
2018-06-18T15:19:52.106Z,99.90
2018-06-18T15:22:19.542Z,99.70
2018-06-18T15:27:14.002Z,99.90
2018-06-18T15:29:41.340Z,99.90
2018-06-18T15:32:08.698Z,99.90
2018-06-18T15:34:36.038Z,99.90
2018-06-18T15:37:03.583Z,99.90
2018-06-18T15:39:31.063Z,98.00
2018-06-18T15:41:58.432Z,99.90
2018-06-18T15:44:25.903Z,99.90
2018-06-18T15:46:53.521Z,99.90
2018-06-18T15:51:47.949Z,99.90
2018-06-18T15:54:15.278Z,99.90
2018-06-18T15:59:09.782Z,99.90
2018-06-18T16:04:04.426Z,99.90
2018-06-18T16:06:31.849Z,99.90
2018-06-18T16:11:26.450Z,99.90
2018-06-18T16:13:53.854Z,99.90
2018-06-18T16:16:21.174Z,99.80
2018-06-18T16:18:48.659Z,99.90
2018-06-18T16:21:15.991Z,99.00
2018-06-18T16:26:10.511Z,99.10
2018-06-18T16:28:37.893Z,98.90
2018-06-18T16:31:05.238Z,99.90
2018-06-18T16:33:32.670Z,97.90
2018-06-18T16:38:27.082Z,98.00
2018-06-18T16:40:54.565Z,99.90
2018-06-18T16:43:21.886Z,99.90
2018-06-18T16:48:16.313Z,99.90
2018-06-18T16:50:43.695Z,99.90
2018-06-18T16:53:11.014Z,99.90
2018-06-18T16:58:06.159Z,94.70
2018-06-18T17:00:34.269Z,91.60
2018-06-18T17:03:02.424Z,91.40
2018-06-18T17:05:30.446Z,89.40
2018-06-18T17:07:59.263Z,93.00
2018-06-18T17:10:28.097Z,94.70
2018-06-18T17:12:56.885Z,93.80
2018-06-18T17:15:24.918Z,92.70
2018-06-18T17:17:52.997Z,91.20
2018-06-18T17:20:21.083Z,92.00
2018-06-18T17:22:49.258Z,85.70
2018-06-18T17:25:17.408Z,88.30
2018-06-18T17:27:45.609Z,84.00
2018-06-18T17:30:13.795Z,87.80
2018-06-18T17:32:41.952Z,91.00
2018-06-18T17:35:10.047Z,93.10
2018-06-18T17:37:38.014Z,95.50
2018-06-18T17:40:05.852Z,97.90
2018-06-18T17:42:33.831Z,99.50
2018-06-18T17:45:01.515Z,99.90
2018-06-18T17:47:29.215Z,99.90
2018-06-18T17:49:56.573Z,99.90
2018-06-18T17:52:23.849Z,97.30
2018-06-18T17:54:51.227Z,98.40
2018-06-18T17:57:18.602Z,98.10
2018-06-18T17:59:46.063Z,97.80
2018-06-18T18:02:13.616Z,98.40
2018-06-18T18:04:40.963Z,99.90
2018-06-18T18:07:08.727Z,99.90
2018-06-18T18:09:36.366Z,99.40
2018-06-18T18:14:31.819Z,98.20
2018-06-18T18:16:59.999Z,97.20
2018-06-18T18:19:28.060Z,98.40
2018-06-18T18:21:56.138Z,98.70
2018-06-18T18:24:24.195Z,98.70
2018-06-18T18:29:20.171Z,99.90
2018-06-18T18:31:48.288Z,99.50
2018-06-18T18:34:16.515Z,99.20
2018-06-18T18:36:43.963Z,99.90
2018-06-18T18:39:11.429Z,99.90
2018-06-18T18:41:39.908Z,99.90
2018-06-18T18:44:07.708Z,99.90
2018-06-18T18:46:35.379Z,99.90
2018-06-18T18:49:02.797Z,99.90
2018-06-18T18:51:30.323Z,99.90
2018-06-18T18:56:30.293Z,99.90
2018-06-18T18:59:29.404Z,99.90
2018-06-18T19:01:57.139Z,99.90
2018-06-18T19:06:51.670Z,99.90
2018-06-18T19:09:19.746Z,99.90
2018-06-18T19:11:47.191Z,99.90
2018-06-18T19:14:16.548Z,99.90
2018-06-18T19:19:21.773Z,99.90
2018-06-18T19:21:51.193Z,99.90
2018-06-18T19:24:20.422Z,99.90
2018-06-18T19:26:49.870Z,99.90
2018-06-18T19:31:48.526Z,99.90
2018-06-18T19:34:19.132Z,99.90
2018-06-18T19:36:49.716Z,99.90
2018-06-18T19:41:49.461Z,99.90
2018-06-18T19:44:19.362Z,99.90
2018-06-18T19:47:54.055Z,99.90
2018-06-18T19:50:23.530Z,99.90
2018-06-18T19:52:59.080Z,99.90
2018-06-18T19:55:30.592Z,99.90
2018-06-18T19:57:57.895Z,99.90
2018-06-18T20:00:29.725Z,99.90
2018-06-18T20:07:57.581Z,99.90
2018-06-18T20:10:25.113Z,99.90
2018-06-18T20:12:52.884Z,99.90
2018-06-18T20:15:20.362Z,99.90
2018-06-18T20:17:47.752Z,99.90
2018-06-18T20:20:15.442Z,99.90
2018-06-18T20:25:10.169Z,99.90
2018-06-18T20:27:37.531Z,99.90
2018-06-18T20:30:05.589Z,99.90
2018-06-18T20:32:32.961Z,99.90
2018-06-18T20:37:37.529Z,99.90
2018-06-18T20:40:05.760Z,99.90
2018-06-18T20:42:33.959Z,99.90
2018-06-18T20:45:02.123Z,99.90
2018-06-18T20:47:30.316Z,99.90
2018-06-18T20:49:58.380Z,99.90
2018-06-18T20:52:26.559Z,99.90
2018-06-18T20:54:54.825Z,99.90
2018-06-18T20:57:23.022Z,99.90
2018-06-18T20:59:51.086Z,99.90
2018-06-18T21:02:19.362Z,99.90
2018-06-18T21:04:47.673Z,99.90
2018-06-18T21:07:15.699Z,99.90
2018-06-18T21:09:43.872Z,99.90
2018-06-18T21:12:11.935Z,99.90
2018-06-18T21:17:07.989Z,99.90
2018-06-18T21:19:36.096Z,99.90
2018-06-18T21:22:04.128Z,99.90
2018-06-18T21:24:32.242Z,99.90
2018-06-18T21:27:00.283Z,99.90
2018-06-18T21:29:28.385Z,99.90
2018-06-18T21:31:56.431Z,99.90
2018-06-18T21:34:24.522Z,99.90
2018-06-18T21:36:52.791Z,99.90
2018-06-18T21:39:20.978Z,99.90
2018-06-18T21:41:49.138Z,99.90
2018-06-18T21:44:23.778Z,99.90
2018-06-18T21:46:51.964Z,99.90
2018-06-18T21:49:20.013Z,99.90
2018-06-18T21:51:48.324Z,99.90
2018-06-18T21:54:16.372Z,99.90
2018-06-18T21:56:44.547Z,99.90
2018-06-18T21:59:12.799Z,99.90
2018-06-18T22:01:43.200Z,99.90
2018-06-18T22:04:11.660Z,99.90
2018-06-18T22:06:39.815Z,99.90
2018-06-18T22:09:14.681Z,99.90
2018-06-18T22:11:44.293Z,99.90
2018-06-18T22:14:12.447Z,99.90
2018-06-18T22:16:40.615Z,99.90
2018-06-18T22:19:09.082Z,99.90
2018-06-18T22:21:37.872Z,99.90
2018-06-18T22:24:06.130Z,99.90
2018-06-18T22:26:34.228Z,99.90
2018-06-18T22:29:02.487Z,99.90
2018-06-18T22:31:30.894Z,99.90
2018-06-18T22:33:58.958Z,99.90
2018-06-18T22:36:27.110Z,99.90
2018-06-18T22:38:55.431Z,99.90
2018-06-18T22:41:23.544Z,99.90
2018-06-18T22:46:19.607Z,99.90
2018-06-18T22:48:47.808Z,99.90
2018-06-18T22:51:16.060Z,99.90
2018-06-18T22:53:44.154Z,99.90
2018-06-18T22:56:12.240Z,99.90
2018-06-18T22:58:40.507Z,99.90
2018-06-18T23:01:08.907Z,99.90
2018-06-18T23:03:36.933Z,99.90
2018-06-18T23:08:33.179Z,99.90
2018-06-18T23:13:31.375Z,99.90
2018-06-18T23:18:27.833Z,99.90
2018-06-18T23:20:56.135Z,99.90
2018-06-18T23:23:24.231Z,99.90
2018-06-18T23:25:52.464Z,99.90
2018-06-18T23:28:23.651Z,99.90
2018-06-18T23:30:51.803Z,99.90
2018-06-18T23:33:19.857Z,99.90
2018-06-18T23:35:48.126Z,99.90
2018-06-18T23:40:43.884Z,99.90
2018-06-18T23:43:11.973Z,99.90
2018-06-18T23:45:40.134Z,99.90
2018-06-18T23:48:08.328Z,99.90
2018-06-18T23:50:36.460Z,99.90
2018-06-18T23:55:32.433Z,99.90
2018-06-18T23:58:00.584Z,99.90
